Lakeshore, Louisiana
Current Conditions -  °F | °C
As of 6:53 PM on Thursday 18 Dec 2014 (Local Time) from KMLU Reporting Station
Scattered Clouds Scattered Clouds  
Wind Chill: 49°   Ceiling: Unl
Heat Index: 49°   Visibility: 10mi
Dew Point: 46°   Wind: 3mph
Humidity: 90%   Direction: 50°NE
Pressure: 30.17"   Gusts: NA
Location:  32.5973°N, 92.0151°W
Report Text: KMLU 190053Z 05003KT 10SM SCT045 09/08 A3017 RMK AO2 SLP216 T00940078
Loading
Personal Weather Stations






























Interactive Weather Map New forecast layout! Learn more

10-Day Weather Forecast

Advertisements
Track Severe Weather on mobile